Dobrodošli na spletni strani vremenske postaje Senovo. Vse informacije so informativnega značaja, saj vremenska postaja ni del državne mreže meteoroloških postaj. AKTUALNIH OBVESTIL NI.


Sneg/Led Od: 23-02-2018 00:00 Do: 23:59 Opozorilo za: Sneg/Led Stopnja: Rumena info button

Pogled proti Armezu več informacij Pogled proti Armezu


Lisca več informacij Lisca


Radar strel več informacij blitzortung!


opozorilo za sneg/led več informacij rain snow radar


Obiščite še:

Template documentation
and downloads

And another site



Weather Underground, zgodovina - Tekstovno

Dnevni povzetek za Januar 7, 2018 Enote:  Angleško    Metrično   Obe
« Predhodni Dan
Naslednji Dan »
Dnevni Tedenski Mesečni Letni Po meri
  Višja: Nižja: Povprečje:
Temperatura: TemperatureC °F 3.3 °F 7.1 °F
Točka rosišča: DewpointC °F 2.7 °F 6 °F
Vlažnost: Humidity % 83 % 93 %
Hitrost vetra: WindSpeedKMH mph 0.0 mph 0.5 mph
Sunki vetra: WindSpeedGustKMH mph - -
Veter:- - SW
Zračni tlak: PressurehPa in 1013.1 in -
Padavine: 0.0 in    
Historical Graphs
 
 
Tabelarni podarki za Januar 7, 2018
Čas Temperatura Točka rosišča Zračni tlak Veter Hitrost vetra Sunki vetra Vlažnost Intenziteta padavin (urna)
TemperatureC °F DewpointC °F PressurehPa in Calm     Humidity % HourlyPrecipMM in
00:00 6.5 °F 5.4 °F 1013.1 in NW 1.0 mph 5.0 mph 93 % 0.0 in
00:05 6.5 °F 5.4 °F 1013.1 in NW 1.4 mph 5.0 mph 93 % 0.0 in
00:09 6.4 °F 5.3 °F 1013.1 in NW 1.1 mph 5.0 mph 93 % 0.0 in
00:14 6.3 °F 5.3 °F 1013.1 in Calm     93 % 0.0 in
00:17 6.2 °F 5.2 °F 1013.1 in Calm   1.8 mph 93 % 0.0 in
00:22 6.1 °F 5.1 °F 1013.1 in Calm   1.8 mph 93 % 0.0 in
00:26 6.1 °F 5.1 °F 1013.1 in Calm     93 % 0.0 in
00:31 6.0 °F 4.9 °F 1013.1 in NW 0.2 mph 3.2 mph 93 % 0.0 in
00:36 6.1 °F 5.1 °F 1013.1 in NW 0.3 mph 3.2 mph 93 % 0.0 in
00:41 6.0 °F 4.9 °F 1013.1 in Calm     93 % 0.0 in
00:47 5.8 °F 4.9 °F 1013.1 in Calm     94 % 0.0 in
00:49 5.8 °F 4.9 °F 1013.1 in Calm     94 % 0.0 in
00:55 5.6 °F 4.6 °F 1013.1 in Calm     93 % 0.0 in
01:00 5.6 °F 4.7 °F 1014.1 in Calm     94 % 0.0 in
01:05 5.4 °F 4.5 °F 1014.1 in Calm     94 % 0.0 in
01:10 5.3 °F 4.4 °F 1014.1 in Calm     94 % 0.0 in
01:16 5.2 °F 4.3 °F 1014.1 in Calm   1.4 mph 94 % 0.0 in
01:21 5.0 °F 4.1 °F 1014.1 in Calm   1.4 mph 94 % 0.0 in
01:26 5.0 °F 4.1 °F 1014.1 in NW 0.5 mph 4.0 mph 94 % 0.0 in
01:31 4.9 °F 4.0 °F 1014.1 in NW 0.6 mph 4.0 mph 94 % 0.0 in
01:36 4.8 °F 3.9 °F 1014.1 in Calm     94 % 0.0 in
01:41 4.8 °F 3.9 °F 1014.1 in Calm     94 % 0.0 in
01:42 4.9 °F 4.0 °F 1014.1 in Calm     94 % 0.0 in
01:47 4.7 °F 3.8 °F 1014.1 in NNW 0.3 mph 3.2 mph 94 % 0.0 in
01:48 4.7 °F 3.8 °F 1014.1 in NNW 0.3 mph 3.2 mph 94 % 0.0 in
01:54 4.6 °F 3.7 °F 1014.1 in NNW 0.6 mph 3.2 mph 94 % 0.0 in
01:57 4.6 °F 3.7 °F 1014.1 in NNW 0.3 mph 1.8 mph 94 % 0.0 in
02:00 4.6 °F 3.7 °F 1014.1 in North 0.2 mph   94 % 0.0 in
02:05 4.4 °F 3.5 °F 1014.1 in Calm     94 % 0.0 in
02:10 4.3 °F 3.4 °F 1014.1 in Calm     94 % 0.0 in
02:11 4.3 °F 3.4 °F 1014.1 in Calm     94 % 0.0 in
02:16 4.2 °F 3.3 °F 1015.1 in Calm     94 % 0.0 in
02:22 4.1 °F 3.2 °F 1015.1 in Calm     94 % 0.0 in
02:26 4.0 °F 3.1 °F 1015.1 in Calm     94 % 0.0 in
02:29 4.0 °F 3.1 °F 1015.1 in Calm     94 % 0.0 in
02:34 3.9 °F 3.2 °F 1015.1 in Calm     95 % 0.0 in
02:40 4.0 °F 3.1 °F 1015.1 in SW 0.2 mph 3.2 mph 94 % 0.0 in
02:44 3.8 °F 3.1 °F 1015.1 in SW 0.2 mph 3.2 mph 95 % 0.0 in
02:49 3.7 °F 3.0 °F 1015.1 in North 0.2 mph   95 % 0.0 in
02:53 3.7 °F 3.0 °F 1015.1 in Calm     95 % 0.0 in
02:59 3.7 °F 3.0 °F 1015.1 in Calm     95 % 0.0 in
03:04 3.6 °F 2.9 °F 1015.1 in Calm     95 % 0.0 in
03:09 3.6 °F 2.9 °F 1015.1 in Calm     95 % 0.0 in
03:12 3.6 °F 2.9 °F 1015.1 in Calm     95 % 0.0 in
03:17 3.6 °F 2.9 °F 1015.1 in Calm     95 % 0.0 in
03:22 3.6 °F 2.9 °F 1015.1 in Calm     95 % 0.0 in
03:24 3.6 °F 2.9 °F 1015.1 in Calm     95 % 0.0 in
03:29 3.4 °F 2.7 °F 1015.1 in Calm     95 % 0.0 in
03:32 3.4 °F 2.7 °F 1015.1 in Calm     95 % 0.0 in
03:37 3.4 °F 2.7 °F 1015.1 in Calm     95 % 0.0 in
03:38 3.4 °F 2.7 °F 1015.1 in Calm     95 % 0.0 in
03:43 3.4 °F 2.7 °F 1015.1 in Calm     95 % 0.0 in
03:44 3.5 °F 2.8 °F 1015.1 in Calm     95 % 0.0 in
03:49 3.4 °F 2.7 °F 1015.1 in NW 0.5 mph 4.0 mph 95 % 0.0 in
03:53 3.4 °F 2.7 °F 1015.1 in NW 0.6 mph 4.0 mph 95 % 0.0 in
03:58 3.4 °F 2.7 °F 1015.1 in NNW 0.6 mph 4.0 mph 95 % 0.0 in
04:03 3.6 °F 2.9 °F 1015.1 in Calm     95 % 0.0 in
04:06 3.6 °F 2.9 °F 1015.1 in Calm     95 % 0.0 in
04:11 3.6 °F 3.0 °F 1015.1 in Calm     96 % 0.0 in
04:16 3.6 °F 3.0 °F 1014.1 in Calm     96 % 0.0 in
04:20 3.6 °F 3.0 °F 1014.1 in Calm     96 % 0.0 in
04:25 3.6 °F 3.0 °F 1014.1 in Calm     96 % 0.0 in
04:28 3.6 °F 3.0 °F 1015.1 in Calm     96 % 0.0 in
04:34 3.6 °F 3.0 °F 1015.1 in Calm     96 % 0.0 in
04:39 3.6 °F 3.0 °F 1015.1 in Calm     96 % 0.0 in
04:45 3.6 °F 3.0 °F 1014.1 in Calm     96 % 0.0 in
04:50 3.6 °F 3.0 °F 1014.1 in Calm     96 % 0.0 in
04:55 3.6 °F 3.0 °F 1014.1 in Calm     96 % 0.0 in
05:01 3.5 °F 2.9 °F 1014.1 in Calm     96 % 0.0 in
05:06 3.4 °F 2.8 °F 1014.1 in Calm     96 % 0.0 in
05:08 3.4 °F 2.8 °F 1014.1 in Calm     96 % 0.0 in
05:13 3.4 °F 2.8 °F 1015.1 in Calm     96 % 0.0 in
05:16 3.4 °F 2.8 °F 1015.1 in Calm   1.4 mph 96 % 0.0 in
05:21 3.3 °F 2.7 °F 1015.1 in WNW 0.8 mph 4.7 mph 96 % 0.0 in
05:26 3.3 °F 2.7 °F 1015.1 in NW 2.1 mph 4.7 mph 96 % 0.0 in
05:33 3.3 °F 2.7 °F 1015.1 in NW 0.8 mph 4.3 mph 96 % 0.0 in
05:39 3.4 °F 2.8 °F 1015.1 in Calm     96 % 0.0 in
05:40 3.4 °F 2.8 °F 1015.1 in Calm     96 % 0.0 in
05:45 3.4 °F 2.8 °F 1016.1 in Calm     96 % 0.0 in
05:50 3.6 °F 3.0 °F 1016.1 in Calm     96 % 0.0 in
05:56 3.7 °F 3.1 °F 1016.1 in Calm     96 % 0.0 in
05:59 3.7 °F 3.1 °F 1016.1 in Calm     96 % 0.0 in
06:04 3.8 °F 3.2 °F 1016.1 in Calm     96 % 0.0 in
06:07 3.8 °F 3.2 °F 1016.1 in Calm     96 % 0.0 in
06:12 3.9 °F 3.4 °F 1016.1 in Calm     97 % 0.0 in
06:17 4.0 °F 3.4 °F 1016.1 in Calm     96 % 0.0 in
06:23 4.1 °F 3.5 °F 1016.1 in Calm     96 % 0.0 in
06:28 4.2 °F 3.6 °F 1016.1 in Calm     96 % 0.0 in
06:30 4.2 °F 3.6 °F 1016.1 in Calm     96 % 0.0 in
06:35 4.2 °F 3.6 °F 1016.1 in NNW 0.3 mph 3.2 mph 96 % 0.0 in
06:40 4.2 °F 3.6 °F 1016.1 in NNW 0.3 mph 3.2 mph 96 % 0.0 in
06:45 4.1 °F 3.5 °F 1016.1 in Calm   1.4 mph 96 % 0.0 in
06:50 4.1 °F 3.5 °F 1016.1 in Calm   1.4 mph 96 % 0.0 in
06:55 4.1 °F 3.5 °F 1016.1 in Calm     96 % 0.0 in
07:00 4.1 °F 3.5 °F 1016.1 in Calm     96 % 0.0 in
07:05 4.1 °F 3.5 °F 1016.1 in Calm     96 % 0.0 in
07:10 4.1 °F 3.7 °F 1016.1 in Calm     97 % 0.0 in
07:16 4.1 °F 3.7 °F 1016.8 in Calm     97 % 0.0 in
07:21 4.1 °F 3.7 °F 1016.8 in Calm     97 % 0.0 in
07:26 4.1 °F 3.7 °F 1016.8 in Calm     97 % 0.0 in
07:31 4.2 °F 3.8 °F 1016.8 in Calm     97 % 0.0 in
07:36 4.2 °F 3.8 °F 1016.8 in Calm     97 % 0.0 in
07:38 4.2 °F 3.8 °F 1016.8 in Calm     97 % 0.0 in
07:44 4.3 °F 3.9 °F 1016.8 in Calm     97 % 0.0 in
07:46 4.3 °F 3.9 °F 1016.8 in Calm     97 % 0.0 in
07:51 4.4 °F 3.9 °F 1016.8 in Calm     97 % 0.0 in
07:56 4.5 °F 4.1 °F 1016.8 in Calm     97 % 0.0 in
08:02 4.6 °F 4.2 °F 1016.1 in Calm     97 % 0.0 in
08:05 4.6 °F 4.2 °F 1016.1 in Calm     97 % 0.0 in
08:09 4.7 °F 4.3 °F 1016.1 in Calm     97 % 0.0 in
08:15 4.8 °F 4.4 °F 1016.8 in Calm     97 % 0.0 in
08:16 4.8 °F 4.4 °F 1016.8 in Calm     97 % 0.0 in
08:21 5.0 °F 4.6 °F 1016.8 in ESE 0.8 mph 4.0 mph 97 % 0.0 in
08:22 5.0 °F 4.6 °F 1016.8 in ESE 0.8 mph 4.0 mph 97 % 0.0 in
08:28 5.1 °F 4.7 °F 1016.8 in ESE 0.6 mph 4.0 mph 97 % 0.0 in
08:33 5.2 °F 4.8 °F 1016.8 in Calm     97 % 0.0 in
08:38 5.3 °F 4.9 °F 1016.8 in Calm     97 % 0.0 in
08:43 5.3 °F 4.9 °F 1018.2 in Calm     97 % 0.0 in
08:48 5.4 °F 4.9 °F 1018.2 in Calm     97 % 0.0 in
08:53 5.5 °F 5.1 °F 1018.2 in Calm     97 % 0.0 in
08:58 5.6 °F 5.2 °F 1018.8 in Calm     97 % 0.0 in
08:59 5.6 °F 5.2 °F 1018.8 in Calm     97 % 0.0 in
09:04 5.6 °F 5.2 °F 1018.8 in Calm     97 % 0.0 in
09:06 5.7 °F 5.3 °F 1018.8 in Calm     97 % 0.0 in
09:11 5.8 °F 5.3 °F 1018.8 in Calm     97 % 0.0 in
09:16 5.9 °F 5.4 °F 1018.8 in Calm   4.3 mph 97 % 0.0 in
09:18 5.9 °F 5.4 °F 1018.8 in ESE 0.2 mph 4.3 mph 97 % 0.0 in
09:28 6.2 °F 5.8 °F 1018.8 in ESE 0.3 mph 2.6 mph 97 % 0.0 in
09:33 6.4 °F 5.9 °F 1018.8 in SW 0.5 mph 4.3 mph 97 % 0.0 in
09:38 6.7 °F 6.3 °F 1018.8 in SW 1.3 mph 4.3 mph 97 % 0.0 in
09:43 6.8 °F 6.3 °F 1018.2 in SW 0.8 mph 4.3 mph 97 % 0.0 in
09:44 6.9 °F 6.4 °F 1018.2 in North 0.2 mph   97 % 0.0 in
09:47 7.0 °F 6.6 °F 1018.2 in Calm     97 % 0.0 in
09:52 7.1 °F 6.7 °F 1018.2 in SE 0.6 mph 4.3 mph 97 % 0.0 in
09:54 7.1 °F 6.7 °F 1018.2 in SE 0.8 mph 4.3 mph 97 % 0.0 in
09:59 7.3 °F 6.8 °F 1018.8 in SSE 0.6 mph 4.3 mph 97 % 0.0 in
10:04 7.5 °F 7.1 °F 1018.8 in Calm     97 % 0.0 in
10:09 7.7 °F 7.3 °F 1018.8 in Calm   2.1 mph 97 % 0.0 in
10:13 7.8 °F 7.3 °F 1018.8 in Calm   2.1 mph 97 % 0.0 in
10:19 8.0 °F 7.6 °F 1018.8 in Calm     97 % 0.0 in
10:21 8.1 °F 7.7 °F 1018.8 in Calm     97 % 0.0 in
10:27 8.3 °F 7.8 °F 1018.8 in Calm     97 % 0.0 in
10:32 8.4 °F 7.9 °F 1018.8 in SE 1.0 mph 4.3 mph 97 % 0.0 in
10:36 8.5 °F 8.1 °F 1018.8 in SE 1.4 mph 4.3 mph 97 % 0.0 in
10:41 8.6 °F 8.2 °F 1018.8 in SSE 0.8 mph 3.2 mph 97 % 0.0 in
10:42 8.7 °F 8.4 °F 1018.8 in SSE 0.5 mph 3.2 mph 98 % 0.0 in
10:47 8.8 °F 8.5 °F 1018.8 in Calm     98 % 0.0 in
10:52 8.9 °F 8.6 °F 1018.8 in Calm     98 % 0.0 in
10:53 9.0 °F 8.6 °F 1018.8 in Calm     97 % 0.0 in
10:58 9.1 °F 8.7 °F 1018.8 in Calm     97 % 0.0 in
11:01 9.2 °F 8.7 °F 1018.8 in Calm     97 % 0.0 in
11:06 9.4 °F 9.1 °F 1018.8 in Calm     98 % 0.0 in
11:11 9.6 °F 9.3 °F 1018.8 in SSE 0.3 mph 4.0 mph 98 % 0.0 in
11:13 9.6 °F 9.3 °F 1018.8 in SE 1.1 mph 4.7 mph 98 % 0.0 in
11:18 9.8 °F 9.5 °F 1018.8 in SE 2.3 mph 4.7 mph 98 % 0.0 in
11:24 10.1 °F 9.7 °F 1018.8 in SE 1.6 mph 4.0 mph 97 % 0.0 in
11:25 10.1 °F 9.7 °F 1018.8 in SE 1.3 mph 4.0 mph 97 % 0.0 in
11:30 10.5 °F 10.2 °F 1018.8 in SE 0.5 mph 3.2 mph 98 % 0.0 in
11:35 10.9 °F 10.6 °F 1018.8 in SSE 0.6 mph 4.0 mph 98 % 0.0 in
11:37 11.0 °F 10.6 °F 1018.8 in SSE 1.3 mph 4.0 mph 97 % 0.0 in
11:43 11.1 °F 10.7 °F 1018.2 in SSE 1.9 mph 4.0 mph 97 % 0.0 in
11:48 11.4 °F 10.9 °F 1018.2 in SE 1.6 mph 4.0 mph 97 % 0.0 in
11:53 11.5 °F 11.1 °F 1018.2 in ESE 2.6 mph 4.3 mph 97 % 0.0 in
11:57 11.6 °F 11.2 °F 1018.2 in SE 2.9 mph 4.7 mph 97 % 0.0 in
12:02 11.7 °F 11.2 °F 1018.8 in South 3.1 mph 6.1 mph 97 % 0.0 in
12:05 11.9 °F 11.4 °F 1018.8 in South 3.2 mph 6.1 mph 97 % 0.0 in
12:10 12.1 °F 11.6 °F 1018.8 in South 4.0 mph 6.1 mph 97 % 0.0 in
12:11 12.1 °F 11.6 °F 1018.8 in South 4.0 mph 6.1 mph 97 % 0.0 in
12:16 12.4 °F 11.9 °F 1018.2 in South 3.4 mph 6.1 mph 97 % 0.0 in
12:18 12.5 °F 12.1 °F 1018.2 in South 3.2 mph 6.1 mph 97 % 0.0 in
12:23 12.6 °F 12.1 °F 1018.2 in South 2.4 mph 4.7 mph 97 % 0.0 in
12:25 12.7 °F 12.2 °F 1018.2 in South 2.4 mph 4.7 mph 97 % 0.0 in
12:31 13.0 °F 12.6 °F 1018.2 in South 2.1 mph 4.7 mph 97 % 0.0 in
12:35 13.3 °F 12.8 °F 1018.2 in SW 1.6 mph 9.0 mph 97 % 0.0 in
12:40 13.5 °F 13.1 °F 1018.2 in WSW 2.7 mph 9.0 mph 97 % 0.0 in
12:43 13.5 °F 13.1 °F 1018.8 in WSW 3.2 mph 9.0 mph 97 % 0.0 in
12:48 13.5 °F 12.9 °F 1018.8 in WSW 3.1 mph 6.4 mph 96 % 0.0 in
12:51 13.5 °F 12.9 °F 1018.8 in West 2.1 mph 6.4 mph 96 % 0.0 in
12:56 13.6 °F 13.0 °F 1018.8 in West 2.6 mph 6.9 mph 96 % 0.0 in
12:59 13.6 °F 13.0 °F 1018.8 in WSW 2.7 mph 6.9 mph 96 % 0.0 in
13:05 13.5 °F 12.7 °F 1018.8 in SW 3.1 mph 5.8 mph 95 % 0.0 in
13:10 13.5 °F 12.7 °F 1018.8 in WSW 3.2 mph 6.4 mph 95 % 0.0 in
13:14 13.5 °F 12.7 °F 1018.8 in West 1.8 mph 6.4 mph 95 % 0.0 in
13:19 13.5 °F 12.6 °F 1018.8 in WSW 1.3 mph 6.9 mph 94 % 0.0 in
13:24 13.6 °F 12.7 °F 1018.8 in WSW 2.4 mph 6.9 mph 94 % 0.0 in
13:29 13.6 °F 12.5 °F 1018.2 in WSW 1.8 mph 5.0 mph 93 % 0.0 in
13:34 13.6 °F 12.5 °F 1018.2 in West 1.6 mph 5.8 mph 93 % 0.0 in
13:39 13.7 °F 12.6 °F 1018.2 in WSW 1.6 mph 5.8 mph 93 % 0.0 in
13:44 13.7 °F 12.4 °F 1018.8 in WNW 1.6 mph 9.0 mph 92 % 0.0 in
13:49 13.7 °F 12.4 °F 1018.8 in West 4.2 mph 10.5 mph 92 % 0.0 in
13:54 13.7 °F 12.3 °F 1018.8 in West 4.0 mph 10.5 mph 91 % 0.0 in
14:00 13.7 °F 12.1 °F 1018.2 in West 2.4 mph 5.8 mph 90 % 0.0 in
14:05 13.7 °F 12.1 °F 1018.2 in WSW 3.1 mph 8.7 mph 90 % 0.0 in
14:07 13.7 °F 12.1 °F 1018.2 in WSW 3.7 mph 8.7 mph 90 % 0.0 in
14:12 13.7 °F 11.9 °F 1018.8 in WSW 3.4 mph 8.7 mph 89 % 0.0 in
14:17 13.7 °F 11.7 °F 1018.8 in WSW 1.6 mph 5.0 mph 88 % 0.0 in
14:23 13.6 °F 11.7 °F 1018.8 in WSW 0.8 mph 4.0 mph 88 % 0.0 in
14:28 13.6 °F 11.5 °F 1018.8 in WSW 0.3 mph 2.1 mph 87 % 0.0 in
14:30 13.6 °F 11.5 °F 1018.8 in Calm   4.3 mph 87 % 0.0 in
14:33 13.6 °F 11.5 °F 1018.8 in WSW 0.3 mph 4.3 mph 87 % 0.0 in
14:38 13.6 °F 11.3 °F 1018.8 in WSW 0.3 mph 4.3 mph 86 % 0.0 in
14:40 13.6 °F 11.3 °F 1018.8 in WNW 0.6 mph 4.7 mph 86 % 0.0 in
14:46 13.6 °F 11.1 °F 1018.8 in NW 2.1 mph 5.0 mph 85 % 0.0 in
14:49 13.5 °F 11.0 °F 1018.8 in NW 2.3 mph 5.0 mph 85 % 0.0 in
14:54 13.5 °F 11.0 °F 1018.8 in West 1.3 mph 4.7 mph 85 % 0.0 in
14:55 13.5 °F 11.0 °F 1018.8 in West 1.0 mph 4.7 mph 85 % 0.0 in
15:00 13.5 °F 10.8 °F 1018.8 in WSW 0.3 mph 4.7 mph 84 % 0.0 in
15:02 13.5 °F 10.8 °F 1018.8 in Calm   2.6 mph 84 % 0.0 in
15:07 13.4 °F 10.8 °F 1018.8 in West 0.5 mph 3.2 mph 84 % 0.0 in
15:11 13.4 °F 10.8 °F 1018.8 in West 0.5 mph 3.2 mph 84 % 0.0 in
15:16 13.4 °F 10.8 °F 1019.9 in WSW 0.5 mph 3.5 mph 84 % 0.0 in
15:21 13.3 °F 10.7 °F 1019.9 in West 1.8 mph 4.0 mph 84 % 0.0 in
15:26 13.2 °F 10.4 °F 1019.9 in West 2.9 mph 5.8 mph 83 % 0.0 in
15:29 13.2 °F 10.4 °F 1019.9 in West 2.7 mph 5.8 mph 83 % 0.0 in
15:36 13.0 °F 10.2 °F 1019.9 in WSW 0.6 mph 4.0 mph 83 % 0.0 in
15:42 12.8 °F 10.0 °F 1019.9 in Calm     83 % 0.0 in
15:45 12.7 °F 9.9 °F 1019.9 in Calm     83 % 0.0 in
15:50 12.5 °F 9.7 °F 1019.9 in Calm     83 % 0.0 in
15:51 12.4 °F 9.6 °F 1019.9 in Calm     83 % 0.0 in
15:56 12.3 °F 9.5 °F 1019.9 in Calm     83 % 0.0 in
16:01 12.0 °F 9.2 °F 1020.9 in Calm     83 % 0.0 in
16:06 11.8 °F 9.0 °F 1020.9 in Calm     83 % 0.0 in
16:11 11.5 °F 8.7 °F 1020.9 in Calm     83 % 0.0 in
16:12 11.5 °F 8.7 °F 1020.9 in Calm     83 % 0.0 in
16:17 11.1 °F 8.3 °F 1020.9 in Calm     83 % 0.0 in
16:22 10.8 °F 8.0 °F 1020.9 in Calm     83 % 0.0 in
16:27 10.6 °F 7.8 °F 1020.9 in Calm     83 % 0.0 in
16:28 10.6 °F 7.8 °F 1020.9 in Calm     83 % 0.0 in
16:33 10.3 °F 7.6 °F 1020.9 in Calm     83 % 0.0 in
16:37 10.2 °F 7.4 °F 1020.9 in Calm     83 % 0.0 in
16:42 9.9 °F 7.3 °F 1020.9 in Calm     84 % 0.0 in
16:47 9.7 °F 7.1 °F 1021.9 in Calm     84 % 0.0 in
16:52 9.5 °F 6.9 °F 1021.9 in Calm     84 % 0.0 in
16:57 9.3 °F 6.7 °F 1019.9 in Calm     84 % 0.0 in
17:03 9.1 °F 6.6 °F 1019.9 in Calm     84 % 0.0 in
17:08 8.8 °F 6.4 °F 1019.9 in Calm   5.0 mph 85 % 0.0 in
17:13 8.6 °F 6.2 °F 1020.9 in NW 1.3 mph 5.5 mph 85 % 0.0 in
17:14 8.6 °F 6.2 °F 1020.9 in NW 1.3 mph 5.5 mph 85 % 0.0 in
17:19 8.4 °F 6.0 °F 1020.9 in NW 0.8 mph 4.3 mph 85 % 0.0 in
17:24 8.1 °F 5.7 °F 1020.9 in NNW 0.3 mph 4.3 mph 85 % 0.0 in
17:31 7.9 °F 5.7 °F 1020.9 in NW 1.4 mph 4.3 mph 86 % 0.0 in
17:34 7.9 °F 5.7 °F 1020.9 in NW 1.4 mph 4.3 mph 86 % 0.0 in
17:39 7.6 °F 5.4 °F 1020.9 in Calm     86 % 0.0 in
17:44 7.4 °F 5.2 °F 1020.9 in Calm     86 % 0.0 in
17:49 7.3 °F 5.1 °F 1020.9 in Calm     86 % 0.0 in
17:54 7.1 °F 4.9 °F 1020.9 in Calm     86 % 0.0 in
17:59 7.0 °F 4.8 °F 1020.9 in Calm     86 % 0.0 in
18:00 7.0 °F 4.8 °F 1020.9 in Calm     86 % 0.0 in
18:05 6.9 °F 4.9 °F 1020.9 in Calm     87 % 0.0 in
18:10 6.8 °F 4.8 °F 1020.9 in Calm     87 % 0.0 in
18:15 6.8 °F 4.8 °F 1020.9 in Calm     87 % 0.0 in
18:20 6.7 °F 4.7 °F 1020.9 in Calm     87 % 0.0 in
18:21 6.7 °F 4.7 °F 1020.9 in Calm     87 % 0.0 in
18:26 6.6 °F 4.8 °F 1020.9 in Calm     88 % 0.0 in
18:30 6.5 °F 4.7 °F 1021.9 in WNW 0.2 mph 4.3 mph 88 % 0.0 in
18:35 6.4 °F 4.6 °F 1021.9 in WNW 0.2 mph 4.3 mph 88 % 0.0 in
18:40 6.4 °F 4.6 °F 1021.9 in NW 0.5 mph 3.5 mph 88 % 0.0 in
18:45 6.3 °F 4.4 °F 1020.9 in NW 0.5 mph 3.5 mph 88 % 0.0 in
18:50 6.3 °F 4.6 °F 1020.9 in Calm     89 % 0.0 in
18:54 6.3 °F 4.6 °F 1020.9 in Calm     89 % 0.0 in
18:59 6.1 °F 4.4 °F 1021.9 in Calm     89 % 0.0 in
19:04 6.1 °F 4.4 °F 1021.9 in Calm     89 % 0.0 in
19:09 6.1 °F 4.4 °F 1021.9 in Calm     89 % 0.0 in
19:14 6.0 °F 4.5 °F 1022.9 in Calm     90 % 0.0 in
19:18 6.0 °F 4.5 °F 1022.9 in Calm     90 % 0.0 in
19:24 6.0 °F 4.5 °F 1022.9 in Calm     90 % 0.0 in
19:25 5.9 °F 4.6 °F 1022.9 in Calm     91 % 0.0 in
19:31 5.8 °F 4.4 °F 1021.9 in Calm     91 % 0.0 in
19:36 5.8 °F 4.4 °F 1021.9 in Calm     91 % 0.0 in
19:40 5.9 °F 4.6 °F 1021.9 in Calm     91 % 0.0 in
19:44 5.8 °F 4.4 °F 1022.9 in Calm     91 % 0.0 in
19:47 5.9 °F 4.6 °F 1022.9 in Calm     91 % 0.0 in
19:52 5.9 °F 4.7 °F 1022.9 in Calm     92 % 0.0 in
19:54 5.9 °F 4.7 °F 1022.9 in Calm     92 % 0.0 in
19:58 5.8 °F 4.6 °F 1022.9 in Calm     92 % 0.0 in
20:03 5.8 °F 4.6 °F 1022.9 in Calm     92 % 0.0 in
20:08 5.8 °F 4.6 °F 1022.9 in Calm     92 % 0.0 in
20:10 5.8 °F 4.6 °F 1022.9 in Calm     92 % 0.0 in
20:15 5.8 °F 4.6 °F 1022.9 in Calm     92 % 0.0 in
20:19 5.9 °F 4.8 °F 1022.9 in Calm     93 % 0.0 in
20:21 5.9 °F 4.8 °F 1022.9 in Calm     93 % 0.0 in
20:26 5.9 °F 4.8 °F 1022.9 in Calm     93 % 0.0 in
20:28 6.0 °F 4.9 °F 1022.9 in Calm     93 % 0.0 in
20:34 6.0 °F 4.9 °F 1022.9 in Calm     93 % 0.0 in
20:39 6.0 °F 4.9 °F 1022.9 in Calm     93 % 0.0 in
20:44 6.0 °F 4.9 °F 1022.9 in Calm     93 % 0.0 in
20:49 5.9 °F 4.8 °F 1022.9 in Calm     93 % 0.0 in
20:54 5.9 °F 5.0 °F 1022.9 in Calm     94 % 0.0 in
20:59 5.9 °F 5.0 °F 1021.9 in Calm     94 % 0.0 in
21:04 5.8 °F 4.9 °F 1021.9 in Calm     94 % 0.0 in
21:09 5.8 °F 4.9 °F 1021.9 in Calm     94 % 0.0 in
21:14 5.7 °F 4.8 °F 1022.9 in Calm     94 % 0.0 in
21:15 5.7 °F 4.8 °F 1022.9 in Calm     94 % 0.0 in
21:20 5.6 °F 4.7 °F 1022.9 in Calm     94 % 0.0 in
21:25 5.6 °F 4.7 °F 1022.9 in Calm     94 % 0.0 in
21:36 5.6 °F 4.7 °F 1022.9 in Calm     94 % 0.0 in
21:41 5.5 °F 4.6 °F 1022.9 in Calm     94 % 0.0 in
21:46 5.4 °F 4.5 °F 1021.9 in Calm     94 % 0.0 in
21:50 5.4 °F 4.5 °F 1021.9 in Calm     94 % 0.0 in
21:56 5.3 °F 4.4 °F 1021.9 in Calm     94 % 0.0 in
22:01 5.3 °F 4.4 °F 1022.9 in Calm     94 % 0.0 in
22:07 5.2 °F 4.3 °F 1022.9 in Calm     94 % 0.0 in
22:12 5.1 °F 4.2 °F 1021.9 in Calm     94 % 0.0 in
22:17 5.1 °F 4.2 °F 1021.9 in Calm     94 % 0.0 in
22:22 5.0 °F 4.3 °F 1021.9 in Calm     95 % 0.0 in
22:27 4.9 °F 4.2 °F 1022.9 in Calm     95 % 0.0 in
22:32 4.9 °F 4.2 °F 1022.9 in Calm     95 % 0.0 in
22:37 4.8 °F 4.1 °F 1022.9 in Calm     95 % 0.0 in
22:41 4.8 °F 4.1 °F 1022.9 in Calm     95 % 0.0 in
22:45 4.8 °F 4.1 °F 1021.9 in Calm     95 % 0.0 in
22:50 4.7 °F 3.9 °F 1021.9 in Calm     95 % 0.0 in
22:56 4.6 °F 3.9 °F 1021.9 in Calm     95 % 0.0 in
22:57 4.6 °F 3.9 °F 1022.9 in Calm     95 % 0.0 in
23:02 4.6 °F 3.9 °F 1022.9 in Calm     95 % 0.0 in
23:07 4.5 °F 3.8 °F 1022.9 in Calm     95 % 0.0 in
23:09 4.5 °F 3.8 °F 1022.9 in Calm     95 % 0.0 in
23:14 4.4 °F 3.7 °F 1022.9 in Calm     95 % 0.0 in
23:19 4.4 °F 3.7 °F 1022.9 in Calm     95 % 0.0 in
23:22 4.3 °F 3.6 °F 1022.9 in Calm     95 % 0.0 in
23:27 4.3 °F 3.6 °F 1022.9 in Calm     95 % 0.0 in
23:32 4.1 °F 3.4 °F 1022.9 in Calm     95 % 0.0 in
23:37 4.1 °F 3.4 °F 1022.9 in Calm     95 % 0.0 in
23:43 4.1 °F 3.4 °F 1022.9 in Calm     95 % 0.0 in
23:44 4.1 °F 3.4 °F 1022.9 in Calm     95 % 0.0 in
23:49 4.1 °F 3.4 °F 1022.9 in Calm     95 % 0.0 in
23:55 4.0 °F 3.3 °F 1022.9 in Calm     95 % 0.0 in
Vremenska postaja Senovo
Podatki zbrani iz Weather Underground - 3 mb

Script developed by  Jim McMurry - jmcmurry@mwt.net Adapted for the template by  Wim van der Kuil - Leuven-Template.eu

Vremenski podatki so objavljeni na:

European Weather Network

WeatherCloud

Weather Underground

AWEKAS

HAMweather, WeatherForYou, PWS Weather

MapView

Geostik

Slovenia weather network

Oprema, ki se uporablja:

Vremenski program
Cumulus

Vremenski server
Asus

Cumulus

Asus